Tuesday, September 02, 2014
21:21 UTC
  |  Log In   |  Register Free
Airport Search:

Foothills Regional Airport
(KMRN)

Foothills Regional Airport Diagram
No Airport Diagram Available

FAA data valid effective July 24, 2014 until September 18, 2014 (unless otherwise noted).

 
 
 
 
 
 
 
 
 
 
 
 
 
 

Current Aviation Weather for Foothills Regional Airport (KMRN)

The most recent METAR observation for KMRN was updated at: 2055 UTC
METAR Summary (Translated METAR)
KMRN
022055Z AUTO 00000KT 10SM CLR 28/20 A3005 RMK AO2 T02750195
KHKY
(11.8 nm SE from KMRN)
022053Z 02007KT 10SM FEW085 28/21 A3000 RMK AO2 SLP136 T02780206 56021
TAF Summary (Translated TAF)
KHKY
(11.8 nm SE from KMRN)
022009Z 0220/0318 24005KT P6SM VCSH SCT050 TEMPO 0220/0222 01008G16KT FM030000 23006KT P6SM VCTS BKN050CB FM030300 00000KT P6SM BKN050 FM031100 00000KT 6SM BR SCT045 FM031300 00000KT P6SM SCT035
  Airport Weather Conditions for KMRN

 Current Weather at MRN
82° F
Partly Cloudy
North winds at 3.5 mph
MRN NOAA Radar

Pressure: 30.06 in
Humidity: 61%
Wind: North at 3.5 MPH (3 KT)
Dew Point: 66.9°F
Visibility: 10.00 mi


Airport Weather Forecast for KMRN

Translated METAR and TAF for KMRN
Translated METAR for KMRN (2115 UTC 02 September 2014)
found at http://aviationweather.gov/adds/metars/
 
METAR text: KMRN 022055Z AUTO 00000KT 10SM CLR 28/20 A3005 RMK AO2 T02750195
Conditions at: KMRN (MORGANTON/LENOIR, NC, US) observed 2055 UTC 02 September 2014
Temperature: 27.5°C (82°F)
Dewpoint: 19.5°C (67°F) [RH = 62%]
Pressure (altimeter): 30.05 inches Hg (1017.7 mb)
Winds: calm
Visibility: 10 or more miles (16+ km)
Ceiling: at least 12,000 feet AGL
Clouds: sky clear below 12,000 feet AGL
Weather: automated observation with no human augmentation;
there may or may not be significant weather present at this time
Translated TAF for KMRN

There is no translated TAF available for this airport

Find All Airport Services Find A Hotel Find A Rental Car Find A Golf Course Find A Restaurant $100 Hamburger



FBO's on the Field
FBO Company Facility Photos Services Transportation Aviation Fuel Prices: Prices include tax
Catering Weather Repair Courtesy Rental Type 100LL JetA JetA+ MOGAS 8087
 
Foothills Aviation

This FBO has not yet been rated
FS:Shell
Last Updated: Aug-28
Login to update fuel prices
SS:
Contact Foothills AviationMore FBO Information
 
Add another FBO Facility Photos Catering Weather Repair Courtesy Rental Type 100LL JetA JetA+ MOGAS 8087
Services Transportation Aviation Fuel Prices: Prices include tax


GlobalAir.com Airport Resource Center model-print
model-print
model-print
model-print